sensor_id;sensor_type;location;lat;lon;timestamp;pressure;altitude;pressure_sealevel;temperature
23208;BMP180;11773;52.570;13.052;2023-05-07T00:00:29;101921.00;;;15.40
23208;BMP180;11773;52.570;13.052;2023-05-07T00:02:59;101927.00;;;15.40
23208;BMP180;11773;52.570;13.052;2023-05-07T00:05:30;101935.00;;;15.40
23208;BMP180;11773;52.570;13.052;2023-05-07T00:07:59;101934.00;;;15.40
23208;BMP180;11773;52.570;13.052;2023-05-07T00:10:29;101929.00;;;15.40
23208;BMP180;11773;52.570;13.052;2023-05-07T00:12:59;101940.00;;;15.40
23208;BMP180;11773;52.570;13.052;2023-05-07T00:15:29;101919.00;;;15.40
23208;BMP180;11773;52.570;13.052;2023-05-07T00:17:58;101928.00;;;15.40
23208;BMP180;11773;52.570;13.052;2023-05-07T00:20:28;101928.00;;;15.40
23208;BMP180;11773;52.570;13.052;2023-05-07T00:22:57;101938.00;;;15.40
23208;BMP180;11773;52.570;13.052;2023-05-07T00:25:27;101944.00;;;15.50
23208;BMP180;11773;52.570;13.052;2023-05-07T00:27:57;101924.00;;;15.50
23208;BMP180;11773;52.570;13.052;2023-05-07T00:30:28;101929.00;;;15.50
23208;BMP180;11773;52.570;13.052;2023-05-07T00:32:57;101921.00;;;15.50
23208;BMP180;11773;52.570;13.052;2023-05-07T00:35:28;101924.00;;;15.50
23208;BMP180;11773;52.570;13.052;2023-05-07T00:37:59;101927.00;;;15.50
23208;BMP180;11773;52.570;13.052;2023-05-07T00:40:28;101921.00;;;15.50
23208;BMP180;11773;52.570;13.052;2023-05-07T00:42:58;101929.00;;;15.50
23208;BMP180;11773;52.570;13.052;2023-05-07T00:45:29;101928.00;;;15.50
23208;BMP180;11773;52.570;13.052;2023-05-07T00:48:02;101927.00;;;15.60
23208;BMP180;11773;52.570;13.052;2023-05-07T00:50:33;101926.00;;;15.60
23208;BMP180;11773;52.570;13.052;2023-05-07T00:53:03;101933.00;;;15.60
23208;BMP180;11773;52.570;13.052;2023-05-07T00:55:34;101921.00;;;15.60
23208;BMP180;11773;52.570;13.052;2023-05-07T00:58:05;101921.00;;;15.60
23208;BMP180;11773;52.570;13.052;2023-05-07T01:00:35;101924.00;;;15.60
23208;BMP180;11773;52.570;13.052;2023-05-07T01:03:06;101927.00;;;15.60
23208;BMP180;11773;52.570;13.052;2023-05-07T01:05:36;101909.00;;;15.60
23208;BMP180;11773;52.570;13.052;2023-05-07T01:08:06;101913.00;;;15.60
23208;BMP180;11773;52.570;13.052;2023-05-07T01:10:36;101908.00;;;15.50
23208;BMP180;11773;52.570;13.052;2023-05-07T01:13:06;101911.00;;;15.50
23208;BMP180;11773;52.570;13.052;2023-05-07T01:15:36;101928.00;;;15.50
23208;BMP180;11773;52.570;13.052;2023-05-07T01:18:06;101918.00;;;15.50
23208;BMP180;11773;52.570;13.052;2023-05-07T01:20:36;101930.00;;;15.50
23208;BMP180;11773;52.570;13.052;2023-05-07T01:23:07;101919.00;;;15.50
23208;BMP180;11773;52.570;13.052;2023-05-07T01:25:37;101917.00;;;15.50
23208;BMP180;11773;52.570;13.052;2023-05-07T01:28:06;101924.00;;;15.50
23208;BMP180;11773;52.570;13.052;2023-05-07T01:30:37;101922.00;;;15.50
23208;BMP180;11773;52.570;13.052;2023-05-07T01:33:15;101935.00;;;15.50
23208;BMP180;11773;52.570;13.052;2023-05-07T01:35:50;101919.00;;;15.50
23208;BMP180;11773;52.570;13.052;2023-05-07T01:38:22;101914.00;;;15.50
23208;BMP180;11773;52.570;13.052;2023-05-07T01:40:52;101927.00;;;15.50
23208;BMP180;11773;52.570;13.052;2023-05-07T01:43:22;101915.00;;;15.50
23208;BMP180;11773;52.570;13.052;2023-05-07T01:45:52;101921.00;;;15.60
23208;BMP180;11773;52.570;13.052;2023-05-07T01:48:24;101921.00;;;15.60
23208;BMP180;11773;52.570;13.052;2023-05-07T01:50:55;101921.00;;;15.60
23208;BMP180;11773;52.570;13.052;2023-05-07T01:53:28;101936.00;;;15.60
23208;BMP180;11773;52.570;13.052;2023-05-07T01:55:58;101930.00;;;15.70
23208;BMP180;11773;52.570;13.052;2023-05-07T01:58:27;101929.00;;;15.70
23208;BMP180;11773;52.570;13.052;2023-05-07T02:00:57;101933.00;;;15.70
23208;BMP180;11773;52.570;13.052;2023-05-07T02:03:26;101928.00;;;15.60
23208;BMP180;11773;52.570;13.052;2023-05-07T02:05:56;101929.00;;;15.60
23208;BMP180;11773;52.570;13.052;2023-05-07T02:08:26;101930.00;;;15.60
23208;BMP180;11773;52.570;13.052;2023-05-07T02:10:55;101938.00;;;15.60
23208;BMP180;11773;52.570;13.052;2023-05-07T02:13:29;101945.00;;;15.60
23208;BMP180;11773;52.570;13.052;2023-05-07T02:15:59;101939.00;;;15.50
23208;BMP180;11773;52.570;13.052;2023-05-07T02:18:28;101937.00;;;15.50
23208;BMP180;11773;52.570;13.052;2023-05-07T02:20:58;101930.00;;;15.50
23208;BMP180;11773;52.570;13.052;2023-05-07T02:23:28;101947.00;;;15.50
23208;BMP180;11773;52.570;13.052;2023-05-07T02:25:58;101936.00;;;15.40
23208;BMP180;11773;52.570;13.052;2023-05-07T02:28:27;101941.00;;;15.40
23208;BMP180;11773;52.570;13.052;2023-05-07T02:30:57;101943.00;;;15.40
23208;BMP180;11773;52.570;13.052;2023-05-07T02:33:29;101938.00;;;15.40
23208;BMP180;11773;52.570;13.052;2023-05-07T02:36:12;101936.00;;;15.40
23208;BMP180;11773;52.570;13.052;2023-05-07T02:38:38;101952.00;;;15.40
23208;BMP180;11773;52.570;13.052;2023-05-07T02:41:08;101943.00;;;15.30
23208;BMP180;11773;52.570;13.052;2023-05-07T02:43:37;101961.00;;;15.30
23208;BMP180;11773;52.570;13.052;2023-05-07T02:46:09;101969.00;;;15.30
23208;BMP180;11773;52.570;13.052;2023-05-07T02:48:38;101974.00;;;15.30
23208;BMP180;11773;52.570;13.052;2023-05-07T02:51:08;101958.00;;;15.30
23208;BMP180;11773;52.570;13.052;2023-05-07T02:53:38;101967.00;;;15.40
23208;BMP180;11773;52.570;13.052;2023-05-07T02:56:08;101961.00;;;15.40
23208;BMP180;11773;52.570;13.052;2023-05-07T02:58:37;101969.00;;;15.40
23208;BMP180;11773;52.570;13.052;2023-05-07T03:01:13;101956.00;;;15.40
23208;BMP180;11773;52.570;13.052;2023-05-07T03:03:43;101969.00;;;15.40
23208;BMP180;11773;52.570;13.052;2023-05-07T03:06:13;101961.00;;;15.30
23208;BMP180;11773;52.570;13.052;2023-05-07T03:08:43;101967.00;;;15.40
23208;BMP180;11773;52.570;13.052;2023-05-07T03:11:13;101954.00;;;15.40
23208;BMP180;11773;52.570;13.052;2023-05-07T03:13:43;101951.00;;;15.30
23208;BMP180;11773;52.570;13.052;2023-05-07T03:16:12;101952.00;;;15.30
23208;BMP180;11773;52.570;13.052;2023-05-07T03:18:42;101945.00;;;15.40
23208;BMP180;11773;52.570;13.052;2023-05-07T03:21:12;101950.00;;;15.30
23208;BMP180;11773;52.570;13.052;2023-05-07T03:23:41;101953.00;;;15.30
23208;BMP180;11773;52.570;13.052;2023-05-07T03:26:11;101960.00;;;15.30
23208;BMP180;11773;52.570;13.052;2023-05-07T03:28:40;101952.00;;;15.30
23208;BMP180;11773;52.570;13.052;2023-05-07T03:31:10;101957.00;;;15.30
23208;BMP180;11773;52.570;13.052;2023-05-07T03:33:52;101973.00;;;15.30
23208;BMP180;11773;52.570;13.052;2023-05-07T03:36:23;101954.00;;;15.30
23208;BMP180;11773;52.570;13.052;2023-05-07T03:38:54;101959.00;;;15.30
23208;BMP180;11773;52.570;13.052;2023-05-07T03:41:24;101965.00;;;15.30
23208;BMP180;11773;52.570;13.052;2023-05-07T03:43:54;101965.00;;;15.30
23208;BMP180;11773;52.570;13.052;2023-05-07T03:46:24;101970.00;;;15.30
23208;BMP180;11773;52.570;13.052;2023-05-07T03:48:55;101969.00;;;15.20
23208;BMP180;11773;52.570;13.052;2023-05-07T03:51:24;101979.00;;;15.20
23208;BMP180;11773;52.570;13.052;2023-05-07T03:53:55;101987.00;;;15.20
23208;BMP180;11773;52.570;13.052;2023-05-07T03:56:25;101991.00;;;15.20
23208;BMP180;11773;52.570;13.052;2023-05-07T03:58:56;101989.00;;;15.20
23208;BMP180;11773;52.570;13.052;2023-05-07T04:01:26;101987.00;;;15.20
23208;BMP180;11773;52.570;13.052;2023-05-07T04:03:56;101977.00;;;15.20
23208;BMP180;11773;52.570;13.052;2023-05-07T04:06:26;101987.00;;;15.20
23208;BMP180;11773;52.570;13.052;2023-05-07T04:08:56;101982.00;;;15.20
23208;BMP180;11773;52.570;13.052;2023-05-07T04:11:25;101982.00;;;15.20
23208;BMP180;11773;52.570;13.052;2023-05-07T04:13:55;101984.00;;;15.20
23208;BMP180;11773;52.570;13.052;2023-05-07T04:16:24;101981.00;;;15.20
23208;BMP180;11773;52.570;13.052;2023-05-07T04:18:54;101989.00;;;15.20
23208;BMP180;11773;52.570;13.052;2023-05-07T04:21:24;101998.00;;;15.20
23208;BMP180;11773;52.570;13.052;2023-05-07T04:23:55;101990.00;;;15.10
23208;BMP180;11773;52.570;13.052;2023-05-07T04:26:25;102009.00;;;15.10
23208;BMP180;11773;52.570;13.052;2023-05-07T04:28:54;101996.00;;;15.10
23208;BMP180;11773;52.570;13.052;2023-05-07T04:31:26;102011.00;;;15.10
23208;BMP180;11773;52.570;13.052;2023-05-07T04:33:55;102004.00;;;15.20
23208;BMP180;11773;52.570;13.052;2023-05-07T04:36:25;101999.00;;;15.20
23208;BMP180;11773;52.570;13.052;2023-05-07T04:38:58;102009.00;;;15.20
23208;BMP180;11773;52.570;13.052;2023-05-07T04:41:27;102010.00;;;15.20
23208;BMP180;11773;52.570;13.052;2023-05-07T04:43:57;102010.00;;;15.20
23208;BMP180;11773;52.570;13.052;2023-05-07T04:46:27;102011.00;;;15.20
23208;BMP180;11773;52.570;13.052;2023-05-07T04:48:57;102008.00;;;15.10
23208;BMP180;11773;52.570;13.052;2023-05-07T04:51:26;102022.00;;;15.10
23208;BMP180;11773;52.570;13.052;2023-05-07T04:53:56;102014.00;;;15.10
23208;BMP180;11773;52.570;13.052;2023-05-07T04:56:29;102020.00;;;15.10
23208;BMP180;11773;52.570;13.052;2023-05-07T04:58:58;102015.00;;;15.00
23208;BMP180;11773;52.570;13.052;2023-05-07T05:01:28;102021.00;;;15.00
23208;BMP180;11773;52.570;13.052;2023-05-07T05:03:58;102027.00;;;15.00
23208;BMP180;11773;52.570;13.052;2023-05-07T05:06:29;102021.00;;;15.00
23208;BMP180;11773;52.570;13.052;2023-05-07T05:08:59;102020.00;;;15.00
23208;BMP180;11773;52.570;13.052;2023-05-07T05:11:28;102026.00;;;15.10
23208;BMP180;11773;52.570;13.052;2023-05-07T05:14:00;102029.00;;;15.00
23208;BMP180;11773;52.570;13.052;2023-05-07T05:16:30;102034.00;;;15.00
23208;BMP180;11773;52.570;13.052;2023-05-07T05:19:02;102033.00;;;15.00
23208;BMP180;11773;52.570;13.052;2023-05-07T05:21:33;102034.00;;;15.00
23208;BMP180;11773;52.570;13.052;2023-05-07T05:24:02;102029.00;;;14.90
23208;BMP180;11773;52.570;13.052;2023-05-07T05:26:32;102035.00;;;14.90
23208;BMP180;11773;52.570;13.052;2023-05-07T05:29:02;102029.00;;;14.90
23208;BMP180;11773;52.570;13.052;2023-05-07T05:31:31;102037.00;;;14.90
23208;BMP180;11773;52.570;13.052;2023-05-07T05:34:02;102048.00;;;15.00
23208;BMP180;11773;52.570;13.052;2023-05-07T05:36:32;102036.00;;;15.00
23208;BMP180;11773;52.570;13.052;2023-05-07T05:39:01;102053.00;;;15.00
23208;BMP180;11773;52.570;13.052;2023-05-07T05:41:31;102043.00;;;15.00
23208;BMP180;11773;52.570;13.052;2023-05-07T05:44:01;102050.00;;;15.00
23208;BMP180;11773;52.570;13.052;2023-05-07T05:46:31;102051.00;;;15.00
23208;BMP180;11773;52.570;13.052;2023-05-07T05:49:02;102063.00;;;15.00
23208;BMP180;11773;52.570;13.052;2023-05-07T05:51:31;102049.00;;;15.00
23208;BMP180;11773;52.570;13.052;2023-05-07T05:54:01;102053.00;;;15.00
23208;BMP180;11773;52.570;13.052;2023-05-07T05:56:30;102044.00;;;15.00
23208;BMP180;11773;52.570;13.052;2023-05-07T05:59:00;102041.00;;;15.00
23208;BMP180;11773;52.570;13.052;2023-05-07T06:01:30;102057.00;;;15.00
23208;BMP180;11773;52.570;13.052;2023-05-07T06:03:59;102039.00;;;15.00
23208;BMP180;11773;52.570;13.052;2023-05-07T06:06:29;102056.00;;;15.10
23208;BMP180;11773;52.570;13.052;2023-05-07T06:08:59;102064.00;;;15.10
23208;BMP180;11773;52.570;13.052;2023-05-07T06:11:29;102052.00;;;15.20
23208;BMP180;11773;52.570;13.052;2023-05-07T06:14:00;102060.00;;;15.20
23208;BMP180;11773;52.570;13.052;2023-05-07T06:16:30;102055.00;;;15.30
23208;BMP180;11773;52.570;13.052;2023-05-07T06:18:59;102070.00;;;15.40
23208;BMP180;11773;52.570;13.052;2023-05-07T06:21:29;102084.00;;;15.50
23208;BMP180;11773;52.570;13.052;2023-05-07T06:23:59;102079.00;;;15.50
23208;BMP180;11773;52.570;13.052;2023-05-07T06:26:28;102072.00;;;15.50
23208;BMP180;11773;52.570;13.052;2023-05-07T06:28:58;102076.00;;;15.60
23208;BMP180;11773;52.570;13.052;2023-05-07T06:31:30;102082.00;;;15.60
23208;BMP180;11773;52.570;13.052;2023-05-07T06:34:00;102083.00;;;15.70
23208;BMP180;11773;52.570;13.052;2023-05-07T06:36:30;102072.00;;;15.80
23208;BMP180;11773;52.570;13.052;2023-05-07T06:39:00;102076.00;;;15.80
23208;BMP180;11773;52.570;13.052;2023-05-07T06:41:29;102081.00;;;15.90
23208;BMP180;11773;52.570;13.052;2023-05-07T06:43:59;102074.00;;;16.00
23208;BMP180;11773;52.570;13.052;2023-05-07T06:46:29;102080.00;;;16.00
23208;BMP180;11773;52.570;13.052;2023-05-07T06:48:59;102078.00;;;16.10
23208;BMP180;11773;52.570;13.052;2023-05-07T06:51:28;102071.00;;;16.30
23208;BMP180;11773;52.570;13.052;2023-05-07T06:53:58;102084.00;;;16.40
23208;BMP180;11773;52.570;13.052;2023-05-07T06:56:28;102078.00;;;16.50
23208;BMP180;11773;52.570;13.052;2023-05-07T06:58:57;102098.00;;;16.60
23208;BMP180;11773;52.570;13.052;2023-05-07T07:01:27;102077.00;;;16.70
23208;BMP180;11773;52.570;13.052;2023-05-07T07:03:57;102085.00;;;16.80
23208;BMP180;11773;52.570;13.052;2023-05-07T07:06:27;102080.00;;;16.80
23208;BMP180;11773;52.570;13.052;2023-05-07T07:08:57;102088.00;;;16.80
23208;BMP180;11773;52.570;13.052;2023-05-07T07:11:26;102091.00;;;16.90
23208;BMP180;11773;52.570;13.052;2023-05-07T07:13:55;102088.00;;;16.90
23208;BMP180;11773;52.570;13.052;2023-05-07T07:16:25;102098.00;;;16.90
23208;BMP180;11773;52.570;13.052;2023-05-07T07:18:55;102090.00;;;16.90
23208;BMP180;11773;52.570;13.052;2023-05-07T07:21:24;102088.00;;;16.90
23208;BMP180;11773;52.570;13.052;2023-05-07T07:23:54;102092.00;;;16.90
23208;BMP180;11773;52.570;13.052;2023-05-07T07:26:23;102095.00;;;16.90
23208;BMP180;11773;52.570;13.052;2023-05-07T07:28:53;102106.00;;;16.90
23208;BMP180;11773;52.570;13.052;2023-05-07T07:31:22;102088.00;;;16.90
23208;BMP180;11773;52.570;13.052;2023-05-07T07:33:52;102090.00;;;16.90
23208;BMP180;11773;52.570;13.052;2023-05-07T07:36:21;102094.00;;;16.90
23208;BMP180;11773;52.570;13.052;2023-05-07T07:38:54;102100.00;;;16.90
23208;BMP180;11773;52.570;13.052;2023-05-07T07:41:23;102087.00;;;16.90
23208;BMP180;11773;52.570;13.052;2023-05-07T07:43:53;102081.00;;;17.00
23208;BMP180;11773;52.570;13.052;2023-05-07T07:46:23;102099.00;;;17.00
23208;BMP180;11773;52.570;13.052;2023-05-07T07:48:52;102085.00;;;17.10
23208;BMP180;11773;52.570;13.052;2023-05-07T07:51:22;102086.00;;;17.20
23208;BMP180;11773;52.570;13.052;2023-05-07T07:53:51;102083.00;;;17.20
23208;BMP180;11773;52.570;13.052;2023-05-07T07:56:21;102103.00;;;17.20
23208;BMP180;11773;52.570;13.052;2023-05-07T07:58:50;102101.00;;;17.30
23208;BMP180;11773;52.570;13.052;2023-05-07T08:01:20;102102.00;;;17.40
23208;BMP180;11773;52.570;13.052;2023-05-07T08:03:49;102084.00;;;17.50
23208;BMP180;11773;52.570;13.052;2023-05-07T08:06:21;102090.00;;;17.60
23208;BMP180;11773;52.570;13.052;2023-05-07T08:08:50;102097.00;;;17.60
23208;BMP180;11773;52.570;13.052;2023-05-07T08:11:20;102100.00;;;17.70
23208;BMP180;11773;52.570;13.052;2023-05-07T08:13:50;102100.00;;;17.70
23208;BMP180;11773;52.570;13.052;2023-05-07T08:16:22;102096.00;;;17.80
23208;BMP180;11773;52.570;13.052;2023-05-07T08:18:52;102099.00;;;17.80
23208;BMP180;11773;52.570;13.052;2023-05-07T08:21:22;102093.00;;;17.90
23208;BMP180;11773;52.570;13.052;2023-05-07T08:23:52;102091.00;;;17.90
23208;BMP180;11773;52.570;13.052;2023-05-07T08:26:22;102097.00;;;18.00
23208;BMP180;11773;52.570;13.052;2023-05-07T08:28:51;102085.00;;;18.10
23208;BMP180;11773;52.570;13.052;2023-05-07T08:31:21;102090.00;;;18.10
23208;BMP180;11773;52.570;13.052;2023-05-07T08:33:51;102101.00;;;18.20
23208;BMP180;11773;52.570;13.052;2023-05-07T08:36:21;102096.00;;;18.30
23208;BMP180;11773;52.570;13.052;2023-05-07T08:38:50;102107.00;;;18.40
23208;BMP180;11773;52.570;13.052;2023-05-07T08:41:20;102111.00;;;18.40
23208;BMP180;11773;52.570;13.052;2023-05-07T08:43:51;102097.00;;;18.40
23208;BMP180;11773;52.570;13.052;2023-05-07T08:46:22;102092.00;;;18.50
23208;BMP180;11773;52.570;13.052;2023-05-07T08:48:52;102091.00;;;18.60
23208;BMP180;11773;52.570;13.052;2023-05-07T08:51:22;102091.00;;;18.70
23208;BMP180;11773;52.570;13.052;2023-05-07T08:53:51;102093.00;;;18.80
23208;BMP180;11773;52.570;13.052;2023-05-07T08:56:21;102086.00;;;18.90
23208;BMP180;11773;52.570;13.052;2023-05-07T08:58:51;102087.00;;;19.00
23208;BMP180;11773;52.570;13.052;2023-05-07T09:01:22;102097.00;;;19.10
23208;BMP180;11773;52.570;13.052;2023-05-07T09:03:53;102099.00;;;19.20
23208;BMP180;11773;52.570;13.052;2023-05-07T09:06:23;102098.00;;;19.30
23208;BMP180;11773;52.570;13.052;2023-05-07T09:08:55;102118.00;;;19.40
23208;BMP180;11773;52.570;13.052;2023-05-07T09:11:26;102108.00;;;19.40
23208;BMP180;11773;52.570;13.052;2023-05-07T09:13:57;102105.00;;;19.50
23208;BMP180;11773;52.570;13.052;2023-05-07T09:16:30;102104.00;;;19.60
23208;BMP180;11773;52.570;13.052;2023-05-07T09:19:00;102095.00;;;19.70
23208;BMP180;11773;52.570;13.052;2023-05-07T09:21:30;102100.00;;;19.80
23208;BMP180;11773;52.570;13.052;2023-05-07T09:24:00;102100.00;;;19.90
23208;BMP180;11773;52.570;13.052;2023-05-07T09:26:29;102103.00;;;19.90
23208;BMP180;11773;52.570;13.052;2023-05-07T09:29:01;102099.00;;;19.90
23208;BMP180;11773;52.570;13.052;2023-05-07T09:31:30;102101.00;;;20.00
23208;BMP180;11773;52.570;13.052;2023-05-07T09:34:00;102090.00;;;19.90
23208;BMP180;11773;52.570;13.052;2023-05-07T09:36:32;102103.00;;;20.00
23208;BMP180;11773;52.570;13.052;2023-05-07T09:39:01;102094.00;;;20.00
23208;BMP180;11773;52.570;13.052;2023-05-07T09:41:31;102120.00;;;20.00
23208;BMP180;11773;52.570;13.052;2023-05-07T09:44:02;102105.00;;;20.10
23208;BMP180;11773;52.570;13.052;2023-05-07T09:46:34;102111.00;;;20.10
23208;BMP180;11773;52.570;13.052;2023-05-07T09:49:07;102115.00;;;20.10
23208;BMP180;11773;52.570;13.052;2023-05-07T09:51:47;102108.00;;;20.10
23208;BMP180;11773;52.570;13.052;2023-05-07T09:54:19;102106.00;;;20.10
23208;BMP180;11773;52.570;13.052;2023-05-07T09:56:53;102102.00;;;20.20
23208;BMP180;11773;52.570;13.052;2023-05-07T09:59:24;102101.00;;;20.20
23208;BMP180;11773;52.570;13.052;2023-05-07T10:01:58;102103.00;;;20.20
23208;BMP180;11773;52.570;13.052;2023-05-07T10:04:31;102104.00;;;20.20
23208;BMP180;11773;52.570;13.052;2023-05-07T10:07:01;102096.00;;;20.30
23208;BMP180;11773;52.570;13.052;2023-05-07T10:09:33;102118.00;;;20.30
23208;BMP180;11773;52.570;13.052;2023-05-07T10:12:05;102114.00;;;20.30
23208;BMP180;11773;52.570;13.052;2023-05-07T10:14:35;102134.00;;;20.30
23208;BMP180;11773;52.570;13.052;2023-05-07T10:17:06;102119.00;;;20.30
23208;BMP180;11773;52.570;13.052;2023-05-07T10:19:38;102116.00;;;20.30
23208;BMP180;11773;52.570;13.052;2023-05-07T10:22:09;102110.00;;;20.40
23208;BMP180;11773;52.570;13.052;2023-05-07T10:24:39;102120.00;;;20.40
23208;BMP180;11773;52.570;13.052;2023-05-07T10:27:12;102119.00;;;20.40
23208;BMP180;11773;52.570;13.052;2023-05-07T10:35:29;102116.00;;;20.40
23208;BMP180;11773;52.570;13.052;2023-05-07T10:38:00;102130.00;;;20.40
23208;BMP180;11773;52.570;13.052;2023-05-07T10:40:31;102126.00;;;20.40
23208;BMP180;11773;52.570;13.052;2023-05-07T10:43:03;102115.00;;;20.50
23208;BMP180;11773;52.570;13.052;2023-05-07T10:45:37;102128.00;;;20.50
23208;BMP180;11773;52.570;13.052;2023-05-07T10:48:15;102116.00;;;20.60
23208;BMP180;11773;52.570;13.052;2023-05-07T10:50:46;102136.00;;;20.60
23208;BMP180;11773;52.570;13.052;2023-05-07T10:53:21;102129.00;;;20.60
23208;BMP180;11773;52.570;13.052;2023-05-07T10:58:48;102136.00;;;20.50
23208;BMP180;11773;52.570;13.052;2023-05-07T11:04:16;102128.00;;;20.50
23208;BMP180;11773;52.570;13.052;2023-05-07T11:09:55;102121.00;;;20.60
23208;BMP180;11773;52.570;13.052;2023-05-07T11:15:14;102134.00;;;20.60
23208;BMP180;11773;52.570;13.052;2023-05-07T11:17:58;102139.00;;;20.60
23208;BMP180;11773;52.570;13.052;2023-05-07T11:20:54;102131.00;;;20.70
23208;BMP180;11773;52.570;13.052;2023-05-07T11:26:11;102118.00;;;20.70
23208;BMP180;11773;52.570;13.052;2023-05-07T11:28:42;102107.00;;;20.70
23208;BMP180;11773;52.570;13.052;2023-05-07T11:31:12;102115.00;;;20.70
23208;BMP180;11773;52.570;13.052;2023-05-07T11:33:43;102126.00;;;20.80
23208;BMP180;11773;52.570;13.052;2023-05-07T11:36:13;102117.00;;;20.90
23208;BMP180;11773;52.570;13.052;2023-05-07T11:38:43;102132.00;;;20.90
23208;BMP180;11773;52.570;13.052;2023-05-07T11:41:13;102110.00;;;21.00
23208;BMP180;11773;52.570;13.052;2023-05-07T11:43:56;102112.00;;;21.00
23208;BMP180;11773;52.570;13.052;2023-05-07T11:46:28;102119.00;;;21.00
23208;BMP180;11773;52.570;13.052;2023-05-07T11:48:57;102119.00;;;21.00
23208;BMP180;11773;52.570;13.052;2023-05-07T11:51:27;102110.00;;;21.00
23208;BMP180;11773;52.570;13.052;2023-05-07T11:53:57;102108.00;;;21.00
23208;BMP180;11773;52.570;13.052;2023-05-07T11:56:26;102101.00;;;21.00
23208;BMP180;11773;52.570;13.052;2023-05-07T11:58:56;102115.00;;;21.00
23208;BMP180;11773;52.570;13.052;2023-05-07T12:01:25;102105.00;;;21.00
23208;BMP180;11773;52.570;13.052;2023-05-07T12:03:55;102115.00;;;21.00
23208;BMP180;11773;52.570;13.052;2023-05-07T12:06:25;102114.00;;;21.00
23208;BMP180;11773;52.570;13.052;2023-05-07T12:08:55;102099.00;;;21.00
23208;BMP180;11773;52.570;13.052;2023-05-07T12:11:26;102122.00;;;21.00
23208;BMP180;11773;52.570;13.052;2023-05-07T12:13:55;102118.00;;;21.00
23208;BMP180;11773;52.570;13.052;2023-05-07T12:16:27;102109.00;;;21.00
23208;BMP180;11773;52.570;13.052;2023-05-07T12:18:59;102126.00;;;21.00
23208;BMP180;11773;52.570;13.052;2023-05-07T12:21:29;102117.00;;;21.00
23208;BMP180;11773;52.570;13.052;2023-05-07T12:23:59;102111.00;;;21.10
23208;BMP180;11773;52.570;13.052;2023-05-07T12:26:29;102111.00;;;21.10
23208;BMP180;11773;52.570;13.052;2023-05-07T12:28:58;102109.00;;;21.20
23208;BMP180;11773;52.570;13.052;2023-05-07T12:31:28;102101.00;;;21.20
23208;BMP180;11773;52.570;13.052;2023-05-07T12:33:58;102113.00;;;21.20
23208;BMP180;11773;52.570;13.052;2023-05-07T12:36:36;102114.00;;;21.30
23208;BMP180;11773;52.570;13.052;2023-05-07T12:39:01;102107.00;;;21.30
23208;BMP180;11773;52.570;13.052;2023-05-07T12:41:35;102109.00;;;21.30
23208;BMP180;11773;52.570;13.052;2023-05-07T12:44:05;102116.00;;;21.30
23208;BMP180;11773;52.570;13.052;2023-05-07T12:46:38;102118.00;;;21.30
23208;BMP180;11773;52.570;13.052;2023-05-07T12:49:08;102112.00;;;21.30
23208;BMP180;11773;52.570;13.052;2023-05-07T12:51:38;102093.00;;;21.30
23208;BMP180;11773;52.570;13.052;2023-05-07T12:54:07;102116.00;;;21.40
23208;BMP180;11773;52.570;13.052;2023-05-07T12:56:37;102125.00;;;21.40
23208;BMP180;11773;52.570;13.052;2023-05-07T12:59:06;102104.00;;;21.40
23208;BMP180;11773;52.570;13.052;2023-05-07T13:01:36;102116.00;;;21.50
23208;BMP180;11773;52.570;13.052;2023-05-07T13:04:06;102111.00;;;21.50
23208;BMP180;11773;52.570;13.052;2023-05-07T13:06:35;102125.00;;;21.60
23208;BMP180;11773;52.570;13.052;2023-05-07T13:09:05;102111.00;;;21.60
23208;BMP180;11773;52.570;13.052;2023-05-07T13:11:35;102132.00;;;21.70
23208;BMP180;11773;52.570;13.052;2023-05-07T13:14:04;102114.00;;;21.70
23208;BMP180;11773;52.570;13.052;2023-05-07T13:16:34;102121.00;;;21.80
23208;BMP180;11773;52.570;13.052;2023-05-07T13:19:03;102114.00;;;21.80
23208;BMP180;11773;52.570;13.052;2023-05-07T13:21:33;102108.00;;;21.90
23208;BMP180;11773;52.570;13.052;2023-05-07T13:24:02;102121.00;;;21.90
23208;BMP180;11773;52.570;13.052;2023-05-07T13:26:32;102103.00;;;21.90
23208;BMP180;11773;52.570;13.052;2023-05-07T13:29:01;102118.00;;;21.90
23208;BMP180;11773;52.570;13.052;2023-05-07T13:31:31;102117.00;;;21.90
23208;BMP180;11773;52.570;13.052;2023-05-07T13:34:02;102122.00;;;21.90
23208;BMP180;11773;52.570;13.052;2023-05-07T13:36:31;102096.00;;;21.90
23208;BMP180;11773;52.570;13.052;2023-05-07T13:39:04;102102.00;;;22.00
23208;BMP180;11773;52.570;13.052;2023-05-07T13:41:34;102113.00;;;22.00
23208;BMP180;11773;52.570;13.052;2023-05-07T13:44:04;102112.00;;;22.00
23208;BMP180;11773;52.570;13.052;2023-05-07T13:46:34;102097.00;;;22.00
23208;BMP180;11773;52.570;13.052;2023-05-07T13:49:03;102100.00;;;22.00
23208;BMP180;11773;52.570;13.052;2023-05-07T13:51:33;102111.00;;;22.00
23208;BMP180;11773;52.570;13.052;2023-05-07T13:54:03;102108.00;;;22.00
23208;BMP180;11773;52.570;13.052;2023-05-07T13:56:32;102100.00;;;22.00
23208;BMP180;11773;52.570;13.052;2023-05-07T13:59:02;102102.00;;;22.10
23208;BMP180;11773;52.570;13.052;2023-05-07T14:01:32;102113.00;;;22.10
23208;BMP180;11773;52.570;13.052;2023-05-07T14:04:01;102109.00;;;22.20
23208;BMP180;11773;52.570;13.052;2023-05-07T14:06:31;102110.00;;;22.20
23208;BMP180;11773;52.570;13.052;2023-05-07T14:09:00;102101.00;;;22.20
23208;BMP180;11773;52.570;13.052;2023-05-07T14:11:30;102106.00;;;22.20
23208;BMP180;11773;52.570;13.052;2023-05-07T14:14:01;102088.00;;;22.20
23208;BMP180;11773;52.570;13.052;2023-05-07T14:16:31;102083.00;;;22.20
23208;BMP180;11773;52.570;13.052;2023-05-07T14:19:00;102101.00;;;22.20
23208;BMP180;11773;52.570;13.052;2023-05-07T14:21:30;102085.00;;;22.20